createdAt,value
2023-04-19T00:02:16.951Z,9.09
2023-04-19T00:07:21.446Z,8.95
2023-04-19T00:12:23.924Z,8.94
2023-04-19T00:17:27.558Z,8.88
2023-04-19T00:22:31.103Z,8.62
2023-04-19T00:27:33.527Z,8.54
2023-04-19T00:32:36.511Z,8.67
2023-04-19T00:37:38.881Z,8.51
2023-04-19T00:42:42.358Z,8.58
2023-04-19T00:47:47.650Z,8.55
2023-04-19T00:52:52.279Z,8.39
2023-04-19T00:57:54.892Z,8.32
2023-04-19T01:02:57.468Z,8.30
2023-04-19T01:08:02.087Z,8.40
2023-04-19T01:13:04.472Z,8.39
2023-04-19T01:18:07.588Z,8.30
2023-04-19T01:23:12.263Z,8.57
2023-04-19T01:28:14.704Z,8.54
2023-04-19T01:33:18.287Z,8.59
2023-04-19T01:38:21.145Z,8.60
2023-04-19T01:43:24.035Z,8.60
2023-04-19T01:48:27.550Z,8.46
2023-04-19T01:53:30.531Z,8.37
2023-04-19T01:58:33.435Z,8.26
2023-04-19T02:03:36.225Z,8.07
2023-04-19T02:08:40.105Z,8.01
2023-04-19T02:13:43.425Z,7.87
2023-04-19T02:18:47.048Z,7.91
2023-04-19T02:23:49.506Z,7.95
2023-04-19T02:28:53.128Z,7.99
2023-04-19T02:33:56.046Z,7.84
2023-04-19T02:39:00.114Z,7.82
2023-04-19T02:44:02.911Z,7.99
2023-04-19T02:49:07.280Z,7.66
2023-04-19T02:54:10.059Z,8.10
2023-04-19T02:59:13.900Z,8.18
2023-04-19T03:04:17.506Z,8.19
2023-04-19T03:09:20.773Z,8.23
2023-04-19T03:14:24.295Z,8.39
2023-04-19T03:19:29.212Z,8.25
2023-04-19T03:24:32.012Z,8.48
2023-04-19T03:29:48.796Z,8.63
2023-04-19T03:34:51.868Z,8.69
2023-04-19T03:39:54.330Z,8.84
2023-04-19T03:45:06.209Z,8.85
2023-04-19T03:50:13.784Z,8.95
2023-04-19T03:55:19.839Z,9.12
2023-04-19T04:00:23.146Z,9.31
2023-04-19T04:05:31.597Z,9.39
2023-04-19T04:10:36.038Z,9.58
2023-04-19T04:15:39.724Z,9.67
2023-04-19T04:20:46.047Z,9.96
2023-04-19T04:25:58.265Z,10.09
2023-04-19T04:31:03.661Z,10.19
2023-04-19T04:36:12.762Z,10.49
2023-04-19T04:41:17.190Z,10.70
2023-04-19T04:46:20.301Z,10.66
2023-04-19T04:51:22.918Z,10.87
2023-04-19T04:56:29.536Z,10.88
2023-04-19T05:01:32.728Z,11.02
2023-04-19T05:06:37.904Z,11.11
2023-04-19T05:11:41.572Z,11.36
2023-04-19T05:16:44.983Z,11.39
2023-04-19T05:21:48.728Z,11.51
2023-04-19T05:26:53.258Z,11.73
2023-04-19T05:31:58.329Z,11.78
2023-04-19T05:37:25.976Z,12.13
2023-04-19T05:42:32.955Z,12.43
2023-04-19T05:47:37.984Z,12.58
2023-04-19T05:52:58.980Z,12.72
2023-04-19T05:58:01.531Z,12.87
2023-04-19T06:03:05.845Z,13.26
2023-04-19T06:08:16.696Z,13.35
2023-04-19T06:13:20.191Z,13.44
2023-04-19T06:18:22.908Z,13.56
2023-04-19T06:23:27.181Z,13.56
2023-04-19T06:28:30.891Z,13.70
2023-04-19T06:33:33.275Z,13.94
2023-04-19T06:38:36.557Z,13.97
2023-04-19T06:43:42.944Z,14.10
2023-04-19T06:48:45.358Z,14.50
2023-04-19T06:53:47.797Z,14.90
2023-04-19T06:58:50.212Z,15.17
2023-04-19T07:03:53.948Z,15.37
2023-04-19T07:08:58.320Z,15.54
2023-04-19T07:14:01.361Z,15.81
2023-04-19T07:19:03.953Z,15.98
2023-04-19T07:24:09.063Z,16.21
2023-04-19T07:29:13.979Z,16.34
2023-04-19T07:34:17.146Z,16.30
2023-04-19T07:39:20.282Z,16.45
2023-04-19T07:44:22.648Z,16.29
2023-04-19T07:49:26.132Z,16.42
2023-04-19T07:54:30.626Z,16.79
2023-04-19T07:59:33.713Z,16.65
2023-04-19T08:04:37.557Z,16.81
2023-04-19T08:09:40.731Z,16.70
2023-04-19T08:14:56.045Z,16.93
2023-04-19T08:20:03.948Z,16.83
2023-04-19T08:25:08.229Z,16.83
2023-04-19T08:30:11.547Z,16.95
2023-04-19T08:35:15.322Z,16.95
2023-04-19T08:40:18.744Z,17.05
2023-04-19T08:45:31.144Z,17.02
2023-04-19T08:50:48.433Z,16.92
2023-04-19T09:01:06.287Z,17.04
2023-04-19T09:06:09.029Z,17.09
2023-04-19T09:11:11.683Z,17.27
2023-04-19T09:16:37.779Z,17.24
2023-04-19T09:21:40.683Z,17.23
2023-04-19T09:26:55.941Z,17.30
2023-04-19T09:32:00.508Z,17.41
2023-04-19T09:37:24.879Z,17.70
2023-04-19T09:48:08.101Z,18.11
2023-04-19T09:53:11.216Z,18.30
2023-04-19T09:58:14.847Z,18.38
2023-04-19T10:03:22.374Z,18.59
2023-04-19T10:08:29.044Z,18.59
2023-04-19T10:13:33.219Z,18.61
2023-04-19T10:18:36.638Z,18.70
2023-04-19T10:23:40.057Z,18.74
2023-04-19T10:28:42.866Z,18.83
2023-04-19T10:33:45.311Z,18.71
2023-04-19T10:38:53.118Z,18.90
2023-04-19T10:43:55.427Z,19.01
2023-04-19T10:49:00.036Z,19.03
2023-04-19T10:54:07.574Z,18.85
2023-04-19T10:59:22.170Z,19.10
2023-04-19T11:04:30.899Z,19.19
2023-04-19T11:09:35.764Z,19.15
2023-04-19T11:14:54.191Z,19.14
2023-04-19T11:20:07.785Z,19.07
2023-04-19T11:25:31.805Z,19.11
2023-04-19T11:30:35.072Z,18.98
2023-04-19T11:35:38.001Z,18.87
2023-04-19T11:40:41.384Z,18.87
2023-04-19T11:45:44.182Z,18.80
2023-04-19T11:50:49.740Z,18.81
2023-04-19T11:55:59.404Z,18.73
2023-04-19T12:01:29.721Z,18.83
2023-04-19T12:06:32.759Z,18.90
2023-04-19T12:11:47.374Z,18.85
2023-04-19T12:17:11.978Z,18.93
2023-04-19T12:22:15.891Z,19.07
2023-04-19T12:27:18.526Z,18.93
2023-04-19T12:32:21.116Z,19.02
2023-04-19T12:37:23.850Z,19.05
2023-04-19T12:42:27.660Z,18.95
2023-04-19T12:47:31.844Z,19.01
2023-04-19T12:52:35.267Z,18.96
2023-04-19T12:57:38.534Z,18.86
2023-04-19T13:02:42.114Z,18.89
2023-04-19T13:07:44.925Z,18.96
2023-04-19T13:12:47.267Z,18.75
2023-04-19T13:17:50.997Z,18.99
2023-04-19T13:22:53.891Z,18.91
2023-04-19T13:27:57.752Z,18.74
2023-04-19T13:33:02.068Z,18.83
2023-04-19T13:38:04.997Z,18.91
2023-04-19T13:43:10.060Z,18.91
2023-04-19T13:48:15.486Z,18.78
2023-04-19T13:53:18.118Z,18.96
2023-04-19T13:58:20.565Z,18.86
2023-04-19T14:03:24.771Z,18.78
2023-04-19T14:08:27.751Z,18.62
2023-04-19T14:13:31.270Z,18.55
2023-04-19T14:18:34.475Z,18.48
2023-04-19T14:23:37.356Z,18.31
2023-04-19T14:28:40.202Z,18.30
2023-04-19T14:33:44.043Z,18.16
2023-04-19T14:38:46.463Z,18.08
2023-04-19T14:43:48.944Z,17.97
2023-04-19T14:48:51.849Z,17.85
2023-04-19T14:53:54.233Z,17.68
2023-04-19T14:58:57.655Z,17.63
2023-04-19T15:04:01.344Z,17.49
2023-04-19T15:09:05.556Z,17.37
2023-04-19T15:14:11.495Z,17.31
2023-04-19T15:19:15.074Z,17.21
2023-04-19T15:24:17.819Z,17.16
2023-04-19T15:29:21.029Z,17.10
2023-04-19T15:34:23.429Z,16.99
2023-04-19T15:39:26.041Z,16.90
2023-04-19T15:44:28.573Z,16.85
2023-04-19T15:49:31.506Z,16.76
2023-04-19T15:54:33.868Z,16.67
2023-04-19T15:59:36.300Z,16.60
2023-04-19T16:04:38.920Z,16.44
2023-04-19T16:09:41.435Z,16.32
2023-04-19T16:14:43.722Z,16.30
2023-04-19T16:19:46.188Z,16.26
2023-04-19T16:24:49.645Z,16.11
2023-04-19T16:29:51.977Z,16.09
2023-04-19T16:34:54.299Z,15.99
2023-04-19T16:40:08.668Z,15.88
2023-04-19T16:45:11.445Z,15.70
2023-04-19T16:50:14.662Z,15.66
2023-04-19T16:55:17.212Z,15.51
2023-04-19T17:00:22.128Z,15.49
2023-04-19T17:05:25.596Z,15.23
2023-04-19T17:10:28.660Z,15.40
2023-04-19T17:15:32.117Z,15.39
2023-04-19T17:20:34.978Z,15.37
2023-04-19T17:25:37.407Z,15.29
2023-04-19T17:30:40.385Z,15.21
2023-04-19T17:35:43.133Z,15.18
2023-04-19T17:40:45.582Z,15.09
2023-04-19T17:45:47.909Z,14.77
2023-04-19T17:50:50.122Z,14.83
2023-04-19T17:55:52.529Z,14.73
2023-04-19T18:00:54.872Z,14.64
2023-04-19T18:05:57.698Z,14.47
2023-04-19T18:11:00.134Z,14.44
2023-04-19T18:16:03.770Z,14.32
2023-04-19T18:21:07.001Z,14.27
2023-04-19T18:26:09.548Z,14.27
2023-04-19T18:31:12.415Z,14.12
2023-04-19T18:36:14.778Z,14.02
2023-04-19T18:41:17.823Z,14.12
2023-04-19T18:46:21.828Z,14.15
2023-04-19T18:51:24.680Z,14.09
2023-04-19T18:57:03.840Z,14.12
2023-04-19T19:01:51.027Z,14.21
2023-04-19T19:06:53.887Z,14.08
2023-04-19T19:11:57.021Z,14.18
2023-04-19T19:16:59.781Z,14.17
2023-04-19T19:22:03.291Z,14.22
2023-04-19T19:27:06.011Z,14.15
2023-04-19T19:32:09.952Z,14.10
2023-04-19T19:37:12.748Z,14.18
2023-04-19T19:42:19.022Z,14.19
2023-04-19T19:47:22.255Z,14.00
2023-04-19T19:52:27.403Z,14.01
2023-04-19T19:58:16.403Z,14.02
2023-04-19T20:02:56.843Z,13.89
2023-04-19T20:08:08.494Z,13.88
2023-04-19T20:13:13.476Z,13.87
2023-04-19T20:18:17.763Z,13.79
2023-04-19T20:23:21.945Z,13.74
2023-04-19T20:28:26.249Z,13.71
2023-04-19T20:33:28.739Z,13.78
2023-04-19T20:38:32.308Z,13.78
2023-04-19T20:43:34.812Z,13.63
2023-04-19T20:48:38.181Z,13.65
2023-04-19T20:53:40.753Z,13.52
2023-04-19T20:58:43.593Z,13.42
2023-04-19T21:03:46.784Z,13.56
2023-04-19T21:08:49.922Z,13.31
2023-04-19T21:13:52.807Z,13.51
2023-04-19T21:18:56.003Z,13.55
2023-04-19T21:23:58.808Z,13.49
2023-04-19T21:29:01.718Z,13.34
2023-04-19T21:34:04.691Z,13.50
2023-04-19T21:39:07.194Z,13.38
2023-04-19T21:44:10.627Z,13.52
2023-04-19T21:49:13.635Z,13.34
2023-04-19T21:54:23.380Z,13.22
2023-04-19T21:59:35.970Z,13.38
2023-04-19T22:04:39.703Z,13.34
2023-04-19T22:09:42.880Z,13.23
2023-04-19T22:14:45.134Z,13.32
2023-04-19T22:19:48.786Z,13.18
2023-04-19T22:24:56.734Z,13.20
2023-04-19T22:30:00.486Z,13.17
2023-04-19T22:35:03.150Z,13.10
2023-04-19T22:40:07.029Z,13.12
2023-04-19T22:45:10.562Z,13.05
2023-04-19T22:50:13.168Z,12.95
2023-04-19T22:55:15.616Z,13.02
2023-04-19T23:00:18.380Z,12.99
2023-04-19T23:05:20.712Z,12.78
2023-04-19T23:10:24.626Z,12.66
2023-04-19T23:15:29.593Z,12.69
2023-04-19T23:20:32.400Z,12.75
2023-04-19T23:25:34.949Z,12.49
2023-04-19T23:30:37.340Z,12.64
2023-04-19T23:35:39.840Z,12.71
2023-04-19T23:40:42.296Z,12.72
2023-04-19T23:45:45.128Z,12.71
2023-04-19T23:50:47.667Z,12.62
2023-04-19T23:55:50.173Z,12.50
